Time;durP1;ratioP1;P1;durP2;ratioP2;P2;SDS_P1;SDS_P2;PMS_P1;PMS_P2;Temp;Humidity;BMP_temperature;BMP_pressure;BME280_temperature;BME280_humidity;BME280_pressure;Samples;Min_cycle;Max_cycle;Signal;HPM_P1;HPM_P2
2023/11/15 00:02:25;;;;;;;;;6.00;5.20;;;;;15.42;100.00;97414.81;6178513;28;99335;-65
2023/11/15 00:05:28;;;;;;;;;3.00;3.00;;;;;15.45;100.00;97414.22;6163624;28;96701;-66
2023/11/15 00:08:32;;;;;;;;;6.40;6.00;;;;;15.23;100.00;97393.03;6166193;28;96852;-66
2023/11/15 00:11:35;;;;;;;;;6.00;6.00;;;;;15.47;100.00;97414.75;6167243;28;96471;-66
2023/11/15 00:14:40;;;;;;;;;7.50;6.75;;;;;15.53;100.00;97410.91;6182043;28;96318;-66
2023/11/15 00:17:44;;;;;;;;;8.00;8.00;;;;;15.51;100.00;97408.47;6187141;28;96386;-66
2023/11/15 00:20:48;;;;;;;;;7.00;7.00;;;;;15.57;100.00;97411.94;6189679;28;96465;-66
2023/11/15 00:23:51;;;;;;;;;8.40;8.00;;;;;15.55;100.00;97404.09;6190487;28;96831;-66
2023/11/15 00:26:55;;;;;;;;;6.00;5.50;;;;;15.62;100.00;97402.94;6187288;28;96360;-65
2023/11/15 00:30:00;;;;;;;;;8.00;7.00;;;;;15.61;100.00;97402.13;6171817;28;97469;-66
2023/11/15 00:33:03;;;;;;;;;10.00;8.60;;;;;15.50;100.00;97417.69;6183103;28;96691;-66
2023/11/15 00:36:11;;;;;;;;;7.50;6.00;;;;;15.29;100.00;97361.19;6185622;28;96614;-65
2023/11/15 00:39:14;;;;;;;;;7.00;5.00;;;;;15.52;100.00;97407.38;6169384;28;96403;-65
2023/11/15 00:42:18;;;;;;;;;5.00;5.00;;;;;15.49;100.00;97405.19;6164210;28;96584;-66
2023/11/15 00:45:24;;;;;;;;;6.20;6.20;;;;;15.46;100.00;97404.97;6186873;28;96520;-65
2023/11/15 00:48:27;;;;;;;;;5.00;5.00;;;;;15.49;100.00;97402.47;6187603;28;96686;-65
2023/11/15 00:51:31;;;;;;;;;5.00;5.00;;;;;15.48;100.00;97403.59;6171466;28;97448;-66
2023/11/15 00:54:34;;;;;;;;;5.40;4.40;;;;;15.52;100.00;97404.66;6188909;28;96431;-65
2023/11/15 00:57:38;;;;;;;;;4.00;4.00;;;;;15.57;100.00;97395.66;6188575;28;96348;-66
2023/11/15 01:00:47;;;;;;;;;5.00;4.00;;;;;15.60;100.00;97397.78;6187616;28;96458;-66
2023/11/15 01:03:56;;;;;;;;;5.00;4.50;;;;;15.64;100.00;97395.31;6186100;28;96461;-66
2023/11/15 01:07:00;;;;;;;;;2.80;2.80;;;;;15.70;100.00;97381.34;6188181;28;96375;-65
2023/11/15 01:10:05;;;;;;;;;3.20;3.00;;;;;15.72;100.00;97398.19;6154928;28;96623;-66
2023/11/15 01:13:09;;;;;;;;;4.00;4.00;;;;;15.70;100.00;97392.22;6170854;28;96778;-67
2023/11/15 01:16:14;;;;;;;;;5.00;5.00;;;;;15.74;100.00;97389.72;6184530;28;96786;-66
2023/11/15 01:19:18;;;;;;;;;5.00;5.00;;;;;15.74;100.00;97389.72;6211698;28;96567;-66
2023/11/15 01:22:21;;;;;;;;;6.00;5.60;;;;;15.78;100.00;97399.75;6194509;28;96528;-66
2023/11/15 01:25:30;;;;;;;;;4.00;2.50;;;;;15.67;100.00;97387.38;6203520;28;96428;-66
2023/11/15 01:28:34;;;;;;;;;5.80;5.20;;;;;15.73;100.00;97393.56;6166092;28;97016;-67
2023/11/15 01:31:39;;;;;;;;;4.00;4.00;;;;;15.72;100.00;97387.31;6194728;28;96468;-66
2023/11/15 01:34:42;;;;;;;;;5.80;4.80;;;;;15.68;100.00;97382.75;6235124;28;96534;-70
2023/11/15 01:37:46;;;;;;;;;4.00;4.00;;;;;15.65;100.00;97386.84;6221132;28;96373;-70
2023/11/15 01:40:51;;;;;;;;;5.75;4.00;;;;;15.63;100.00;97380.09;6239253;28;95934;-70
2023/11/15 01:43:54;;;;;;;;;4.00;4.00;;;;;15.65;100.00;97383.31;6195876;28;96496;-70
2023/11/15 01:46:59;;;;;;;;;6.00;5.60;;;;;15.55;100.00;97393.22;6214003;28;96370;-70
2023/11/15 01:50:05;;;;;;;;;4.40;4.40;;;;;15.52;100.00;97399.25;6214288;28;96460;-70
2023/11/15 01:53:09;;;;;;;;;4.00;3.60;;;;;15.53;100.00;97395.44;6212092;28;96510;-70
2023/11/15 01:56:12;;;;;;;;;6.40;6.00;;;;;15.55;100.00;97401.38;6154462;28;98583;-70
2023/11/15 01:59:16;;;;;;;;;4.40;4.40;;;;;15.57;100.00;97401.09;6171281;28;97087;-70
2023/11/15 02:02:21;;;;;;;;;5.00;4.40;;;;;15.60;100.00;97401.31;6154488;28;98377;-70
2023/11/15 02:05:25;;;;;;;;;3.00;3.00;;;;;15.51;100.00;97385.94;6187482;28;96461;-70
2023/11/15 02:08:29;;;;;;;;;3.00;3.00;;;;;15.51;100.00;97394.09;6164802;28;97281;-70
2023/11/15 02:11:32;;;;;;;;;4.00;4.00;;;;;15.52;100.00;97388.38;6194761;28;96248;-70
2023/11/15 02:14:37;;;;;;;;;3.00;2.20;;;;;15.59;100.00;97380.66;6176842;28;97294;-70
2023/11/15 02:17:42;;;;;;;;;4.75;4.75;;;;;15.62;100.00;97387.44;6192283;28;96672;-70
2023/11/15 02:20:47;;;;;;;;;2.60;2.00;;;;;15.63;100.00;97385.53;6193863;28;96311;-70
2023/11/15 02:23:52;;;;;;;;;3.40;3.00;;;;;15.64;100.00;97384.44;6175862;28;96299;-70
2023/11/15 02:26:55;;;;;;;;;3.00;2.00;;;;;15.66;100.00;97383.03;6213593;28;96201;-69
2023/11/15 02:30:00;;;;;;;;;3.00;3.00;;;;;15.63;100.00;97388.25;6178537;28;98676;-70
2023/11/15 02:33:04;;;;;;;;;2.60;2.40;;;;;15.63;100.00;97388.25;6213417;28;96297;-70
2023/11/15 02:36:09;;;;;;;;;3.40;2.60;;;;;15.64;100.00;97392.59;6213153;28;96302;-70
2023/11/15 02:39:14;;;;;;;;;4.00;3.40;;;;;15.67;100.00;97395.53;6177420;28;96958;-70
2023/11/15 02:42:18;;;;;;;;;4.00;4.00;;;;;15.70;100.00;97385.97;6206627;28;96372;-70
2023/11/15 02:45:22;;;;;;;;;3.40;2.80;;;;;15.65;100.00;97388.75;6195213;28;96365;-66
2023/11/15 02:48:26;;;;;;;;;3.00;2.00;;;;;15.65;100.00;97405.06;6211560;28;96459;-66
2023/11/15 02:51:30;;;;;;;;;3.00;3.00;;;;;15.57;100.00;97399.19;6170202;28;96275;-65
2023/11/15 02:54:34;;;;;;;;;2.00;1.75;;;;;15.54;100.00;97396.25;6182594;28;96458;-65
2023/11/15 02:57:38;;;;;;;;;3.00;3.00;;;;;15.46;100.00;97396.81;6175657;28;96547;-65
2023/11/15 03:00:41;;;;;;;;;2.00;2.00;;;;;15.49;100.00;97399.78;6170112;28;96423;-65
2023/11/15 03:03:45;;;;;;;;;3.33;3.33;;;;;15.51;100.00;97400.34;6185810;28;96373;-65
2023/11/15 03:06:48;;;;;;;;;5.00;4.00;;;;;15.52;100.00;97409.28;6155281;28;97201;-63
2023/11/15 03:09:53;;;;;;;;;2.80;2.00;;;;;15.55;100.00;97403.28;6188938;28;96638;-64
2023/11/15 03:12:56;;;;;;;;;5.00;4.60;;;;;15.52;100.00;97417.44;6169075;28;96927;-63
2023/11/15 03:16:01;;;;;;;;;4.00;4.00;;;;;15.45;100.00;97420.47;6186547;28;96622;-64
2023/11/15 03:19:04;;;;;;;;;6.00;6.00;;;;;15.37;100.00;97418.38;6185273;28;96355;-65
2023/11/15 03:22:08;;;;;;;;;3.40;3.40;;;;;15.35;100.00;97408.88;6173266;28;97128;-63
2023/11/15 03:25:13;;;;;;;;;3.80;2.80;;;;;15.25;100.00;97415.25;6212312;28;96566;-64
2023/11/15 03:28:16;;;;;;;;;3.00;3.00;;;;;15.20;100.00;97414.50;6209795;28;96505;-63
2023/11/15 03:31:20;;;;;;;;;4.80;4.80;;;;;15.13;100.00;97418.38;6191721;28;97782;-65
2023/11/15 03:34:24;;;;;;;;;3.00;3.00;;;;;15.06;100.00;97423.31;6196951;28;96102;-63
2023/11/15 03:37:27;;;;;;;;;2.60;2.60;;;;;15.02;100.00;97419.53;6211153;28;96946;-65
2023/11/15 03:40:32;;;;;;;;;3.00;3.00;;;;;15.04;100.00;97413.84;6180983;28;96822;-64
2023/11/15 03:43:35;;;;;;;;;3.00;3.00;;;;;15.07;100.00;97419.50;6191283;28;96892;-64
2023/11/15 03:46:38;;;;;;;;;4.00;3.00;;;;;15.04;100.00;97419.28;6171956;28;98426;-63
2023/11/15 03:49:42;;;;;;;;;2.80;2.80;;;;;15.00;100.00;97426.38;6186346;28;98569;-63
2023/11/15 03:52:45;;;;;;;;;3.40;3.00;;;;;14.95;100.00;97421.81;6186022;28;96249;-64
2023/11/15 03:55:50;;;;;;;;;3.00;3.00;;;;;14.94;100.00;97427.50;6173551;28;96585;-65
2023/11/15 03:58:53;;;;;;;;;7.60;6.60;;;;;14.84;100.00;97419.44;6197497;28;98442;-63
2023/11/15 04:01:56;;;;;;;;;5.40;5.40;;;;;14.82;100.00;97427.06;6171822;28;98481;-63
2023/11/15 04:05:01;;;;;;;;;4.20;4.20;;;;;14.74;100.00;97423.88;6203396;28;96881;-62
2023/11/15 04:08:05;;;;;;;;;3.00;3.00;;;;;14.74;100.00;97426.59;6156464;28;96836;-63
2023/11/15 04:11:10;;;;;;;;;3.40;3.40;;;;;14.61;100.00;97407.44;6190348;28;96848;-64
2023/11/15 04:14:13;;;;;;;;;5.00;4.00;;;;;14.72;100.00;97419.81;6190872;28;96350;-63
2023/11/15 04:17:17;;;;;;;;;5.00;5.00;;;;;14.67;100.00;97423.38;6190276;28;97025;-63
2023/11/15 04:20:21;;;;;;;;;3.40;3.40;;;;;14.67;100.00;97414.41;6193554;28;97202;-64
2023/11/15 04:23:25;;;;;;;;;3.00;3.00;;;;;14.62;100.00;97422.59;6197538;28;96884;-63
2023/11/15 04:26:30;;;;;;;;;4.50;4.00;;;;;14.57;100.00;97419.91;6190055;28;96878;-64
2023/11/15 04:29:33;;;;;;;;;3.20;3.20;;;;;14.38;100.00;97411.66;6205612;28;97062;-65
2023/11/15 04:32:37;;;;;;;;;6.00;6.00;;;;;14.35;100.00;97419.53;6181636;28;96637;-63
2023/11/15 04:35:40;;;;;;;;;5.40;5.00;;;;;14.14;100.00;97408.00;6166887;28;96677;-63
2023/11/15 04:38:43;;;;;;;;;6.00;6.00;;;;;14.22;100.00;97419.03;6215069;28;96371;-64
2023/11/15 04:41:49;;;;;;;;;4.60;4.60;;;;;14.10;100.00;97412.34;6189496;28;98587;-63
2023/11/15 04:44:52;;;;;;;;;4.00;3.80;;;;;14.10;100.00;97421.28;6187819;28;96339;-63
2023/11/15 04:47:56;;;;;;;;;4.00;3.80;;;;;14.10;100.00;97420.50;6201493;28;96399;-64
2023/11/15 04:51:00;;;;;;;;;3.50;3.50;;;;;14.04;100.00;97410.75;6180657;28;96585;-63
2023/11/15 04:54:05;;;;;;;;;4.75;4.00;;;;;14.07;100.00;97419.16;6204039;28;97501;-64
2023/11/15 04:57:10;;;;;;;;;2.25;2.25;;;;;13.99;100.00;97417.00;6201907;28;96951;-64
2023/11/15 05:00:14;;;;;;;;;1.00;1.00;;;;;13.89;100.00;97415.16;6203443;28;96470;-64
2023/11/15 05:03:19;;;;;;;;;4.00;4.00;;;;;13.92;100.00;97411.09;6214238;28;96377;-65
2023/11/15 05:06:23;;;;;;;;;2.20;2.20;;;;;14.01;100.00;97419.44;6176992;28;98274;-65
2023/11/15 05:09:27;;;;;;;;;2.00;2.00;;;;;13.95;100.00;97421.38;6175811;28;98585;-65
2023/11/15 05:12:32;;;;;;;;;1.75;1.75;;;;;13.94;100.00;97411.63;6195510;28;98513;-65
2023/11/15 05:15:35;;;;;;;;;3.00;2.40;;;;;13.83;100.00;97410.03;6196199;28;96629;-64
2023/11/15 05:18:39;;;;;;;;;2.00;2.00;;;;;13.83;100.00;97415.47;6214538;28;96281;-65
2023/11/15 05:21:43;;;;;;;;;1.60;1.00;;;;;13.89;100.00;97407.03;6188964;28;96719;-65
2023/11/15 05:24:46;;;;;;;;;2.25;2.00;;;;;13.97;100.00;97410.28;6200763;28;96520;-64
2023/11/15 05:27:51;;;;;;;;;2.20;2.20;;;;;14.00;100.00;97407.81;6174561;28;96796;-64
2023/11/15 05:30:54;;;;;;;;;2.00;2.00;;;;;13.94;100.00;97405.38;6198295;28;96771;-65
2023/11/15 05:33:58;;;;;;;;;0.00;0.00;;;;;13.83;100.00;97401.91;6200615;28;96908;-65
2023/11/15 05:37:01;;;;;;;;;1.00;1.00;;;;;13.86;100.00;97413.03;6197641;28;96878;-64
2023/11/15 05:40:06;;;;;;;;;2.00;1.00;;;;;13.87;100.00;97406.53;6184805;28;96835;-65
2023/11/15 05:43:12;;;;;;;;;3.00;3.00;;;;;13.88;100.00;97413.53;6179394;28;97596;-66
2023/11/15 05:46:15;;;;;;;;;2.00;2.00;;;;;13.95;100.00;97413.25;6176891;28;96882;-64
2023/11/15 05:49:18;;;;;;;;;3.00;2.80;;;;;13.95;100.00;97420.56;6192712;28;98566;-64
2023/11/15 05:52:22;;;;;;;;;0.80;0.80;;;;;13.93;100.00;97415.41;6179116;28;96834;-65
2023/11/15 05:55:25;;;;;;;;;2.00;2.00;;;;;13.96;100.00;97416.78;6188891;28;96463;-65
2023/11/15 05:58:30;;;;;;;;;1.50;1.50;;;;;13.95;100.00;97418.66;6214038;28;96334;-65
2023/11/15 06:01:37;;;;;;;;;2.00;1.00;;;;;13.99;100.00;97427.03;6196046;28;96390;-65
2023/11/15 06:04:42;;;;;;;;;1.00;1.00;;;;;13.97;100.00;97435.47;6186531;28;96725;-65
2023/11/15 06:07:45;;;;;;;;;0.80;0.80;;;;;14.00;100.00;97434.91;6204452;28;96346;-66
2023/11/15 06:10:48;;;;;;;;;1.00;1.00;;;;;13.99;100.00;97438.69;6197111;28;96784;-66
2023/11/15 06:13:53;;;;;;;;;3.00;3.00;;;;;14.04;100.00;97440.56;6198847;28;96414;-71
2023/11/15 06:16:56;;;;;;;;;1.50;1.50;;;;;14.07;100.00;97446.25;6196254;28;96424;-70
2023/11/15 06:20:00;;;;;;;;;3.00;3.00;;;;;14.13;100.00;97453.25;6196950;28;96977;-72
2023/11/15 06:23:09;;;;;;;;;2.00;2.00;;;;;14.19;100.00;97456.75;6201802;28;97521;-72
2023/11/15 06:26:13;;;;;;;;;4.00;4.00;;;;;14.24;100.00;97454.00;6212866;28;96846;-72
2023/11/15 06:29:18;;;;;;;;;3.00;3.00;;;;;14.24;100.00;97457.53;6178025;28;98663;-72
2023/11/15 06:32:23;;;;;;;;;4.80;4.80;;;;;14.28;100.00;97460.47;6157790;28;97673;-71
2023/11/15 06:35:27;;;;;;;;;4.80;4.00;;;;;14.22;100.00;97462.41;6194006;28;96654;-71
2023/11/15 06:38:30;;;;;;;;;2.00;2.00;;;;;14.22;100.00;97467.81;6192900;28;96435;-71
2023/11/15 06:41:38;;;;;;;;;3.60;2.60;;;;;14.19;100.00;97470.28;6208357;28;96813;-70
2023/11/15 06:44:43;;;;;;;;;4.00;3.00;;;;;14.19;100.00;97478.44;6193301;28;96904;-71
2023/11/15 06:47:47;;;;;;;;;3.00;3.00;;;;;14.16;100.00;97477.09;6193352;28;96485;-70
2023/11/15 06:50:50;;;;;;;;;2.00;2.00;;;;;14.24;100.00;97475.69;6173957;28;96317;-71
2023/11/15 06:53:54;;;;;;;;;3.00;2.33;;;;;14.18;100.00;97477.63;6186001;28;96378;-72
2023/11/15 06:56:57;;;;;;;;;2.00;2.00;;;;;14.28;100.00;97482.16;6208431;28;96998;-72
2023/11/15 07:00:03;;;;;;;;;2.00;2.00;;;;;14.19;100.00;97490.09;6211687;28;96493;-72
2023/11/15 07:03:10;;;;;;;;;3.00;3.00;;;;;14.15;100.00;97501.75;6212109;28;96251;-71
2023/11/15 07:06:14;;;;;;;;;3.00;3.00;;;;;14.17;100.00;97499.59;6177675;28;96683;-72
2023/11/15 07:09:19;;;;;;;;;2.75;2.75;;;;;14.15;100.00;97499.06;6194055;28;96780;-72
2023/11/15 07:12:23;;;;;;;;;2.40;2.40;;;;;14.13;100.00;97493.91;6171726;28;96372;-71
2023/11/15 07:15:28;;;;;;;;;5.00;5.00;;;;;14.10;100.00;97491.75;6187389;28;96417;-72
2023/11/15 07:18:33;;;;;;;;;3.40;3.00;;;;;14.17;100.00;97492.25;6187978;28;96437;-72
2023/11/15 07:21:36;;;;;;;;;3.00;3.00;;;;;14.21;100.00;97497.94;6168583;28;96673;-71
2023/11/15 07:24:41;;;;;;;;;2.80;2.80;;;;;14.23;100.00;97501.97;6187411;28;96489;-70
2023/11/15 07:27:44;;;;;;;;;2.00;2.00;;;;;14.23;100.00;97487.63;6183632;28;96659;-70
2023/11/15 07:30:50;;;;;;;;;4.20;3.60;;;;;14.30;100.00;97497.09;6198474;28;97659;-70
2023/11/15 07:33:53;;;;;;;;;4.40;4.00;;;;;14.31;100.00;97504.13;6186044;28;98477;-70
2023/11/15 07:36:57;;;;;;;;;3.60;3.60;;;;;14.44;100.00;97507.34;6189475;28;96808;-70
2023/11/15 07:40:00;;;;;;;;;5.00;4.80;;;;;14.51;100.00;97505.94;6191718;28;96335;-70
2023/11/15 07:43:05;;;;;;;;;3.80;3.80;;;;;14.55;100.00;97507.00;6195096;28;98619;-70
2023/11/15 07:46:10;;;;;;;;;5.00;4.20;;;;;14.60;100.00;97515.09;6196130;28;96432;-70
2023/11/15 07:49:18;;;;;;;;;4.50;4.25;;;;;14.63;100.00;97521.84;6196264;28;98900;-70
2023/11/15 07:52:24;;;;;;;;;4.00;4.00;;;;;14.63;100.00;97528.09;6206454;28;96274;-70
2023/11/15 07:55:28;;;;;;;;;3.00;3.00;;;;;14.65;100.00;97525.13;6191356;28;96282;-70
2023/11/15 07:58:33;;;;;;;;;6.00;6.00;;;;;14.70;100.00;97531.31;6172715;28;96762;-70
2023/11/15 08:01:40;;;;;;;;;4.00;4.00;;;;;14.80;100.00;97533.16;6194577;28;98664;-70
2023/11/15 08:04:49;;;;;;;;;3.00;3.00;;;;;14.80;100.00;97538.59;6216042;28;96494;-70
2023/11/15 08:07:56;;;;;;;;;3.00;3.00;;;;;14.85;100.00;97552.13;6197576;28;96820;-70
2023/11/15 08:11:03;;;;;;;;;4.00;4.00;;;;;14.90;100.00;97546.66;6197378;28;96909;-69
2023/11/15 08:14:06;;;;;;;;;2.20;2.20;;;;;14.86;100.00;97548.28;6195214;28;96295;-70
2023/11/15 08:17:12;;;;;;;;;2.00;2.00;;;;;14.90;100.00;97548.56;6189441;28;96429;-70
2023/11/15 08:20:17;;;;;;;;;3.00;2.25;;;;;14.90;100.00;97562.13;6178723;28;96711;-70
2023/11/15 08:23:20;;;;;;;;;4.40;4.00;;;;;14.88;100.00;97556.97;6196126;28;96283;-69
2023/11/15 08:26:24;;;;;;;;;4.00;4.00;;;;;14.90;100.00;97562.13;6189746;28;96459;-70
2023/11/15 08:29:27;;;;;;;;;2.40;2.40;;;;;14.83;100.00;97564.31;6189248;28;98099;-70
2023/11/15 08:32:33;;;;;;;;;2.00;2.00;;;;;14.82;100.00;97559.97;6179032;28;98563;-70
2023/11/15 08:35:36;;;;;;;;;3.00;2.00;;;;;14.88;100.00;97580.56;6215754;28;96382;-73
2023/11/15 08:38:40;;;;;;;;;3.00;3.00;;;;;14.90;100.00;97581.94;6214981;28;96407;-72
2023/11/15 08:41:45;;;;;;;;;1.00;1.00;;;;;14.94;100.00;97574.03;6197324;28;96517;-73
2023/11/15 08:44:50;;;;;;;;;1.00;1.00;;;;;14.98;100.00;97583.22;6190680;28;96384;-71
2023/11/15 08:47:57;;;;;;;;;2.00;2.00;;;;;15.03;100.00;97585.91;6172165;28;96768;-72
2023/11/15 08:51:02;;;;;;;;;3.00;3.00;;;;;15.00;100.00;97597.34;6165233;28;97619;-73
2023/11/15 08:54:07;;;;;;;;;3.00;2.00;;;;;15.15;100.00;97594.50;6166126;28;96670;-72
2023/11/15 08:57:10;;;;;;;;;2.00;1.20;;;;;15.28;100.00;97604.72;6165818;28;98646;-73
2023/11/15 09:00:15;;;;;;;;;1.00;1.00;;;;;15.29;100.00;97605.56;6201206;28;97205;-73
2023/11/15 09:03:20;;;;;;;;;2.00;2.00;;;;;15.21;100.00;97606.94;6199282;28;96259;-72
2023/11/15 09:06:24;;;;;;;;;1.20;1.20;;;;;15.22;100.00;97610.47;6189816;28;97548;-72
2023/11/15 09:09:28;;;;;;;;;2.00;2.00;;;;;15.20;100.00;97613.47;6171178;28;97302;-72
2023/11/15 09:12:33;;;;;;;;;2.00;2.00;;;;;15.12;100.00;97617.59;6194689;28;96199;-72
2023/11/15 09:15:37;;;;;;;;;1.00;1.00;;;;;15.26;100.00;97615.06;6187992;28;96505;-73
2023/11/15 09:18:44;;;;;;;;;2.00;1.00;;;;;15.17;100.00;97620.28;6195054;28;96400;-72
2023/11/15 09:21:47;;;;;;;;;1.00;1.00;;;;;15.12;100.00;97623.03;6195281;28;96406;-73
2023/11/15 09:24:54;;;;;;;;;1.00;1.00;;;;;15.02;100.00;97628.53;6195841;28;96656;-72
2023/11/15 09:28:14;;;;;;;;;1.20;1.20;;;;;15.00;100.00;97643.47;6214673;28;96892;-73
2023/11/15 09:31:17;;;;;;;;;2.00;2.00;;;;;14.97;100.00;97644.00;6183689;28;98319;-73
2023/11/15 09:34:24;;;;;;;;;1.60;1.00;;;;;14.84;100.00;97648.16;6199703;28;96437;-72
2023/11/15 09:37:28;;;;;;;;;3.00;2.00;;;;;14.88;100.00;97649.22;6182003;28;96716;-72
2023/11/15 09:40:32;;;;;;;;;1.00;1.00;;;;;14.87;100.00;97658.44;6177537;28;98445;-73
2023/11/15 09:43:36;;;;;;;;;3.50;3.00;;;;;14.80;100.00;97655.25;6189901;28;96361;-63
2023/11/15 09:46:41;;;;;;;;;2.40;2.00;;;;;14.85;100.00;97657.13;6192585;28;97540;-63
2023/11/15 09:49:50;;;;;;;;;3.00;3.00;;;;;14.91;100.00;97661.41;6195358;28;97256;-63
2023/11/15 09:52:56;;;;;;;;;4.60;4.40;;;;;14.83;100.00;97667.44;6188349;28;96769;-63
2023/11/15 09:56:04;;;;;;;;;3.00;3.00;;;;;14.84;100.00;97666.34;6170883;28;98554;-63
2023/11/15 09:59:08;;;;;;;;;5.00;4.00;;;;;14.82;100.00;97679.38;6189366;28;96916;-62
2023/11/15 10:02:16;;;;;;;;;3.80;3.80;;;;;14.74;100.00;97668.03;6171217;28;97069;-62
2023/11/15 10:05:23;;;;;;;;;4.00;4.00;;;;;14.74;100.00;97684.28;6188495;28;96382;-63
2023/11/15 10:08:28;;;;;;;;;2.80;2.00;;;;;14.81;100.00;97678.56;6170497;28;96704;-63
2023/11/15 10:11:32;;;;;;;;;1.00;1.00;;;;;14.83;100.00;97683.72;6170263;28;96498;-63
2023/11/15 10:14:50;;;;;;;;;3.00;2.00;;;;;14.76;100.00;97677.78;6172629;28;97633;-63
2023/11/15 10:17:54;;;;;;;;;3.00;3.00;;;;;14.76;100.00;97691.34;6188959;28;96467;-63
2023/11/15 10:21:08;;;;;;;;;2.40;2.40;;;;;14.78;100.00;97698.09;6187097;28;99685;-63
2023/11/15 10:24:14;;;;;;;;;3.00;3.00;;;;;14.77;100.00;97695.66;6202602;28;96407;-63
2023/11/15 10:27:19;;;;;;;;;3.00;3.00;;;;;14.83;100.00;97700.81;6194879;28;98491;-63
2023/11/15 10:30:22;;;;;;;;;3.00;3.00;;;;;14.82;100.00;97695.66;6195561;28;96915;-63
2023/11/15 10:33:28;;;;;;;;;2.00;2.00;;;;;14.87;100.00;97701.88;6209347;28;96392;-63
2023/11/15 10:36:33;;;;;;;;;3.00;3.00;;;;;14.88;100.00;97708.09;6188322;28;96803;-63
2023/11/15 10:39:40;;;;;;;;;1.00;1.00;;;;;14.87;100.00;97704.56;6188309;28;96356;-63
2023/11/15 10:42:49;;;;;;;;;3.00;3.00;;;;;14.80;100.00;97711.41;6188644;28;96536;-63
2023/11/15 10:45:58;;;;;;;;;2.00;2.00;;;;;14.90;100.00;97714.91;6194872;28;96508;-63
2023/11/15 10:49:02;;;;;;;;;3.50;3.00;;;;;14.88;100.00;97711.63;6180932;28;97609;-63
2023/11/15 10:52:08;;;;;;;;;2.25;2.25;;;;;14.99;100.00;97701.56;6186702;28;96943;-63
2023/11/15 10:55:13;;;;;;;;;2.00;2.00;;;;;15.13;100.00;97705.28;6198509;28;96367;-73
2023/11/15 10:58:22;;;;;;;;;3.00;2.00;;;;;15.04;100.00;97715.91;6183542;28;97027;-72
2023/11/15 11:01:29;;;;;;;;;4.00;3.00;;;;;14.90;100.00;97719.50;6206031;28;96317;-73
2023/11/15 11:04:33;;;;;;;;;3.00;2.75;;;;;14.90;100.00;97725.75;6214610;28;96495;-73
2023/11/15 11:07:46;;;;;;;;;2.00;2.00;;;;;14.90;100.00;97735.78;6171098;28;98746;-73
2023/11/15 11:10:58;;;;;;;;;3.00;3.00;;;;;14.94;100.00;97737.66;6209011;28;96842;-73
2023/11/15 11:14:16;;;;;;;;;3.33;3.00;;;;;14.90;100.00;97735.78;6198420;28;98462;-73
2023/11/15 11:17:33;;;;;;;;;4.00;3.00;;;;;14.91;100.00;97731.97;6187426;28;98557;-72
2023/11/15 11:20:40;;;;;;;;;4.00;3.00;;;;;14.92;100.00;97739.03;6187279;28;98531;-71
2023/11/15 11:24:10;;;;;;;;;3.00;3.00;;;;;14.77;100.00;97744.50;6194715;28;96529;-72
2023/11/15 11:27:31;;;;;;;;;3.00;2.75;;;;;14.63;100.00;97745.09;6186755;28;96242;-73
2023/11/15 11:30:35;;;;;;;;;3.00;3.00;;;;;14.78;100.00;97748.84;6198375;28;97021;-73
2023/11/15 11:33:40;;;;;;;;;2.00;2.00;;;;;15.05;100.00;97750.09;6206694;28;96425;-72
2023/11/15 11:36:50;;;;;;;;;3.00;3.00;;;;;15.46;100.00;97755.31;6205895;28;97627;-72
2023/11/15 11:39:55;;;;;;;;;5.00;5.00;;;;;15.54;100.00;97762.94;6193855;28;96542;-72
2023/11/15 11:43:18;;;;;;;;;5.00;4.25;;;;;15.58;100.00;97764.81;6173219;28;96658;-73
2023/11/15 11:46:21;;;;;;;;;3.40;3.40;;;;;15.54;100.00;97788.16;6191728;28;96271;-71
2023/11/15 11:49:24;;;;;;;;;4.00;4.00;;;;;15.44;100.00;97777.31;6194323;28;96270;-72
2023/11/15 11:52:28;;;;;;;;;4.00;3.40;;;;;15.26;100.00;97791.53;6201952;28;96368;-73
2023/11/15 11:55:33;;;;;;;;;5.00;5.00;;;;;15.15;100.00;97779.09;6185178;28;96691;-73
2023/11/15 11:58:38;;;;;;;;;5.60;5.00;;;;;15.05;100.00;97787.31;6188374;28;96458;-73
2023/11/15 12:01:48;;;;;;;;;8.40;8.40;;;;;15.13;100.00;97786.72;6196608;28;96304;-73
2023/11/15 12:04:51;;;;;;;;;8.00;8.00;;;;;15.05;100.00;97795.44;6203762;28;96425;-65
2023/11/15 12:07:56;;;;;;;;;7.40;7.40;;;;;14.97;100.00;97788.66;6199489;28;96452;-65
2023/11/15 12:11:01;;;;;;;;;4.00;4.00;;;;;15.04;100.00;97801.94;6204958;28;96713;-65
2023/11/15 12:14:05;;;;;;;;;4.20;4.20;;;;;15.15;100.00;97806.25;6187562;28;96731;-65
2023/11/15 12:17:08;;;;;;;;;7.00;6.00;;;;;15.23;100.00;97802.16;6164639;28;98424;-64
2023/11/15 12:20:13;;;;;;;;;3.00;3.00;;;;;15.20;100.00;97800.00;6173246;28;98449;-64
2023/11/15 12:23:19;;;;;;;;;5.40;4.00;;;;;15.17;100.00;97804.88;6198356;28;96407;-64
2023/11/15 12:26:24;;;;;;;;;5.40;5.40;;;;;15.20;100.00;97817.06;6198710;28;96365;-65
2023/11/15 12:29:29;;;;;;;;;3.00;3.00;;;;;15.04;100.00;97818.25;6168886;28;96653;-64
2023/11/15 12:32:34;;;;;;;;;5.00;4.60;;;;;15.01;100.00;97816.88;6184898;28;98716;-64
2023/11/15 12:35:40;;;;;;;;;4.00;4.00;;;;;15.00;100.00;97823.38;6168502;28;98686;-64
2023/11/15 12:38:56;;;;;;;;;3.33;3.33;;;;;15.04;100.00;97832.63;6191436;28;96428;-64
2023/11/15 12:42:02;;;;;;;;;4.20;4.00;;;;;15.23;100.00;97832.84;6178933;28;96477;-65
2023/11/15 12:45:06;;;;;;;;;4.00;4.00;;;;;15.47;100.00;97833.00;6191592;28;96356;-65
2023/11/15 12:48:10;;;;;;;;;5.67;4.67;;;;;15.75;100.00;97839.69;6194407;28;96463;-65
2023/11/15 12:51:15;;;;;;;;;6.00;6.00;;;;;15.90;100.00;97834.16;6190658;28;97643;-65
2023/11/15 12:54:19;;;;;;;;;4.20;4.20;;;;;15.78;100.00;97817.41;6161802;28;98854;-65
2023/11/15 12:57:23;;;;;;;;;6.00;6.00;;;;;15.79;100.00;97827.16;6173607;28;96857;-65
2023/11/15 13:00:32;;;;;;;;;7.00;5.20;;;;;15.67;100.00;97830.22;6192557;28;97024;-65
2023/11/15 13:03:38;;;;;;;;;5.00;5.00;;;;;15.59;100.00;97831.59;6215330;28;96393;-64
2023/11/15 13:06:43;;;;;;;;;6.00;5.00;;;;;15.58;100.00;97827.28;6195103;28;98505;-64
2023/11/15 13:09:46;;;;;;;;;6.00;6.00;;;;;15.47;100.00;97838.44;6180070;28;98508;-65
2023/11/15 13:12:51;;;;;;;;;3.40;3.40;;;;;15.45;100.00;97829.75;6200464;28;96377;-65
2023/11/15 13:15:57;;;;;;;;;3.00;3.00;;;;;15.33;100.00;97840.13;6203576;28;96970;-69
2023/11/15 13:19:01;;;;;;;;;4.00;4.00;;;;;15.52;100.00;97836.53;6167282;28;98561;-70
2023/11/15 13:22:04;;;;;;;;;5.00;4.40;;;;;15.53;100.00;97840.06;6202756;28;96762;-70
2023/11/15 13:25:08;;;;;;;;;6.00;6.00;;;;;15.54;100.00;97849.84;6201210;28;96886;-69
2023/11/15 13:28:13;;;;;;;;;4.80;4.40;;;;;15.49;100.00;97852.56;6202351;28;96311;-70
2023/11/15 13:31:19;;;;;;;;;3.00;3.00;;;;;15.48;100.00;97851.75;6194762;28;96219;-69
2023/11/15 13:34:23;;;;;;;;;3.75;3.75;;;;;15.35;100.00;97862.38;6183587;28;96944;-70
2023/11/15 13:37:26;;;;;;;;;5.00;5.00;;;;;15.14;100.00;97856.22;6200316;28;97002;-70
2023/11/15 13:40:29;;;;;;;;;3.50;3.50;;;;;15.27;100.00;97862.94;6167374;28;96722;-70
2023/11/15 13:43:34;;;;;;;;;5.00;5.00;;;;;15.58;100.00;97848.19;6200897;28;96554;-69
2023/11/15 13:46:40;;;;;;;;;6.00;5.25;;;;;15.67;100.00;97859.28;6194721;28;98923;-70
2023/11/15 13:49:46;;;;;;;;;3.00;3.00;;;;;15.57;100.00;97868.31;6201388;28;97025;-70
2023/11/15 13:52:50;;;;;;;;;3.80;3.80;;;;;15.40;100.00;97857.72;6185216;28;96284;-70
2023/11/15 13:55:54;;;;;;;;;2.00;2.00;;;;;15.23;100.00;97865.41;6167261;28;96730;-68
2023/11/15 13:58:59;;;;;;;;;3.60;3.00;;;;;15.10;100.00;97866.78;6188852;28;96280;-70
2023/11/15 14:02:02;;;;;;;;;4.50;4.50;;;;;15.11;100.00;97883.88;6178673;28;96666;-70
2023/11/15 14:05:12;;;;;;;;;4.00;3.60;;;;;14.96;100.00;97889.34;6193937;28;96894;-70
2023/11/15 14:08:18;;;;;;;;;3.00;3.00;;;;;15.00;100.00;97898.59;6203018;28;96246;-70
2023/11/15 14:11:21;;;;;;;;;2.00;2.00;;;;;15.02;100.00;97890.97;6213458;28;96402;-70
2023/11/15 14:14:26;;;;;;;;;3.75;3.75;;;;;14.96;100.00;97887.44;6192855;28;96385;-70
2023/11/15 14:17:29;;;;;;;;;3.20;3.20;;;;;14.87;100.00;97885.56;6185161;28;96502;-70
2023/11/15 14:20:35;;;;;;;;;4.00;3.00;;;;;14.78;100.00;97900.78;6188326;28;98683;-70